<?xml version="1.0" encoding="UTF-8" standalone="no" ?>
<gpx xmlns="http://www.topografix.com/GPX/1/1" xmlns:xsi="http://www.w3.org/2001/XMLSchema-instance" xsi:schemaLocation="http://www.topografix.com/GPX/1/1 http://www.topografix.com/GPX/1/1/gpx.xsd" version="1.1" creator="VisuGPX - https://www.visugpx.com">
  <metadata>
    <name>Ligne 6 Genève Plage - Vernier Village</name>
  </metadata>
  <trk>
    <name><![CDATA[Ligne 6 Genève Plage - Vernier Village_1]]></name>
    <trkseg>
      <trkpt lat="46.21139" lon="6.17194">
        <ele>378.1</ele>
        <time>2020-04-23T21:42:53.000Z</time>
      </trkpt>
      <trkpt lat="46.21081" lon="6.1707">
        <ele>379.5</ele>
        <time>2020-04-23T21:43:13.812Z</time>
      </trkpt>
      <trkpt lat="46.20961" lon="6.16804">
        <ele>376.6</ele>
        <time>2020-04-23T21:43:57.769Z</time>
      </trkpt>
      <trkpt lat="46.20902" lon="6.16671">
        <ele>375.7</ele>
        <time>2020-04-23T21:44:19.565Z</time>
      </trkpt>
      <trkpt lat="46.20856" lon="6.1657">
        <ele>374.8</ele>
        <time>2020-04-23T21:44:36.443Z</time>
      </trkpt>
      <trkpt lat="46.20829" lon="6.16507">
        <ele>378.2</ele>
        <time>2020-04-23T21:44:46.588Z</time>
      </trkpt>
      <trkpt lat="46.20778" lon="6.16385">
        <ele>378.2</ele>
        <time>2020-04-23T21:45:06.318Z</time>
      </trkpt>
      <trkpt lat="46.20767" lon="6.16362">
        <ele>378.4</ele>
        <time>2020-04-23T21:45:10.172Z</time>
      </trkpt>
      <trkpt lat="46.20742" lon="6.16317">
        <ele>381.4</ele>
        <time>2020-04-23T21:45:18.260Z</time>
      </trkpt>
      <trkpt lat="46.20703" lon="6.16249">
        <ele>383</ele>
        <time>2020-04-23T21:45:30.400Z</time>
      </trkpt>
      <trkpt lat="46.20658" lon="6.1619">
        <ele>386.7</ele>
        <time>2020-04-23T21:45:42.656Z</time>
      </trkpt>
      <trkpt lat="46.20533" lon="6.16041">
        <ele>384.4</ele>
        <time>2020-04-23T21:46:15.065Z</time>
      </trkpt>
      <trkpt lat="46.20508" lon="6.1601">
        <ele>384.2</ele>
        <time>2020-04-23T21:46:21.627Z</time>
      </trkpt>
      <trkpt lat="46.20479" lon="6.15963">
        <ele>383.6</ele>
        <time>2020-04-23T21:46:30.410Z</time>
      </trkpt>
      <trkpt lat="46.20451" lon="6.15913">
        <ele>382.7</ele>
        <time>2020-04-23T21:46:39.288Z</time>
      </trkpt>
      <trkpt lat="46.20417" lon="6.15856">
        <ele>383.6</ele>
        <time>2020-04-23T21:46:49.669Z</time>
      </trkpt>
      <trkpt lat="46.20385" lon="6.15796">
        <ele>384.2</ele>
        <time>2020-04-23T21:47:00.176Z</time>
      </trkpt>
      <trkpt lat="46.20368" lon="6.15771">
        <ele>384.3</ele>
        <time>2020-04-23T21:47:05.144Z</time>
      </trkpt>
      <trkpt lat="46.20319" lon="6.15726">
        <ele>385.6</ele>
        <time>2020-04-23T21:47:16.731Z</time>
      </trkpt>
      <trkpt lat="46.20274" lon="6.15687">
        <ele>385.4</ele>
        <time>2020-04-23T21:47:27.208Z</time>
      </trkpt>
      <trkpt lat="46.20255" lon="6.15662">
        <ele>384.1</ele>
        <time>2020-04-23T21:47:32.367Z</time>
      </trkpt>
      <trkpt lat="46.20241" lon="6.1564">
        <ele>385</ele>
        <time>2020-04-23T21:47:36.471Z</time>
      </trkpt>
      <trkpt lat="46.20239" lon="6.15613">
        <ele>384.9</ele>
        <time>2020-04-23T21:47:40.180Z</time>
      </trkpt>
      <trkpt lat="46.20242" lon="6.156">
        <ele>384.5</ele>
        <time>2020-04-23T21:47:42.018Z</time>
      </trkpt>
      <trkpt lat="46.20252" lon="6.15536">
        <ele>382.8</ele>
        <time>2020-04-23T21:47:51.120Z</time>
      </trkpt>
      <trkpt lat="46.20265" lon="6.15482">
        <ele>381.4</ele>
        <time>2020-04-23T21:47:59.016Z</time>
      </trkpt>
      <trkpt lat="46.20282" lon="6.15405">
        <ele>380.7</ele>
        <time>2020-04-23T21:48:10.320Z</time>
      </trkpt>
      <trkpt lat="46.20354" lon="6.1505">
        <ele>381.5</ele>
        <time>2020-04-23T21:49:01.554Z</time>
      </trkpt>
      <trkpt lat="46.20358" lon="6.1504">
        <ele>381.5</ele>
        <time>2020-04-23T21:49:03.150Z</time>
      </trkpt>
      <trkpt lat="46.20362" lon="6.1504">
        <ele>381.3</ele>
        <time>2020-04-23T21:49:03.967Z</time>
      </trkpt>
      <trkpt lat="46.20386" lon="6.1505">
        <ele>379.7</ele>
        <time>2020-04-23T21:49:08.857Z</time>
      </trkpt>
      <trkpt lat="46.20403" lon="6.15053">
        <ele>378.6</ele>
        <time>2020-04-23T21:49:12.452Z</time>
      </trkpt>
      <trkpt lat="46.20421" lon="6.15047">
        <ele>374.4</ele>
        <time>2020-04-23T21:49:16.057Z</time>
      </trkpt>
      <trkpt lat="46.20501" lon="6.14961">
        <ele>372.6</ele>
        <time>2020-04-23T21:49:35.933Z</time>
      </trkpt>
      <trkpt lat="46.20541" lon="6.14919">
        <ele>373.1</ele>
        <time>2020-04-23T21:49:45.920Z</time>
      </trkpt>
      <trkpt lat="46.20687" lon="6.14779">
        <ele>377.4</ele>
        <time>2020-04-23T21:50:21.027Z</time>
      </trkpt>
      <trkpt lat="46.2071" lon="6.1475">
        <ele>380.4</ele>
        <time>2020-04-23T21:50:27.081Z</time>
      </trkpt>
      <trkpt lat="46.20721" lon="6.14732">
        <ele>381</ele>
        <time>2020-04-23T21:50:30.345Z</time>
      </trkpt>
      <trkpt lat="46.20787" lon="6.14607">
        <ele>385.3</ele>
        <time>2020-04-23T21:50:52.177Z</time>
      </trkpt>
      <trkpt lat="46.20806" lon="6.14565">
        <ele>387.4</ele>
        <time>2020-04-23T21:50:59.203Z</time>
      </trkpt>
      <trkpt lat="46.2081" lon="6.14543">
        <ele>387.7</ele>
        <time>2020-04-23T21:51:02.357Z</time>
      </trkpt>
      <trkpt lat="46.20811" lon="6.1451">
        <ele>388.4</ele>
        <time>2020-04-23T21:51:06.942Z</time>
      </trkpt>
      <trkpt lat="46.20824" lon="6.14402">
        <ele>390.3</ele>
        <time>2020-04-23T21:51:22.042Z</time>
      </trkpt>
      <trkpt lat="46.20838" lon="6.1428">
        <ele>389.7</ele>
        <time>2020-04-23T21:51:39.205Z</time>
      </trkpt>
      <trkpt lat="46.20851" lon="6.14149">
        <ele>390.8</ele>
        <time>2020-04-23T21:51:57.564Z</time>
      </trkpt>
      <trkpt lat="46.20849" lon="6.14087">
        <ele>390</ele>
        <time>2020-04-23T21:52:06.195Z</time>
      </trkpt>
      <trkpt lat="46.20864" lon="6.1405">
        <ele>390.3</ele>
        <time>2020-04-23T21:52:12.180Z</time>
      </trkpt>
      <trkpt lat="46.20899" lon="6.13997">
        <ele>392</ele>
        <time>2020-04-23T21:52:22.273Z</time>
      </trkpt>
      <trkpt lat="46.20928" lon="6.13937">
        <ele>396.6</ele>
        <time>2020-04-23T21:52:32.396Z</time>
      </trkpt>
      <trkpt lat="46.20933" lon="6.13924">
        <ele>396.8</ele>
        <time>2020-04-23T21:52:34.460Z</time>
      </trkpt>
      <trkpt lat="46.20933" lon="6.13914">
        <ele>398.6</ele>
        <time>2020-04-23T21:52:35.946Z</time>
      </trkpt>
      <trkpt lat="46.20929" lon="6.13896">
        <ele>399.1</ele>
        <time>2020-04-23T21:52:38.581Z</time>
      </trkpt>
      <trkpt lat="46.20841" lon="6.13521">
        <ele>408.6</ele>
        <time>2020-04-23T21:53:33.397Z</time>
      </trkpt>
      <trkpt lat="46.20837" lon="6.13502">
        <ele>410.4</ele>
        <time>2020-04-23T21:53:36.123Z</time>
      </trkpt>
      <trkpt lat="46.2084" lon="6.1348">
        <ele>411.1</ele>
        <time>2020-04-23T21:53:39.227Z</time>
      </trkpt>
      <trkpt lat="46.20878" lon="6.13318">
        <ele>416.1</ele>
        <time>2020-04-23T21:54:02.914Z</time>
      </trkpt>
      <trkpt lat="46.20886" lon="6.13249">
        <ele>416.9</ele>
        <time>2020-04-23T21:54:12.614Z</time>
      </trkpt>
      <trkpt lat="46.20886" lon="6.13216">
        <ele>416.5</ele>
        <time>2020-04-23T21:54:17.223Z</time>
      </trkpt>
      <trkpt lat="46.2085" lon="6.12872">
        <ele>414.9</ele>
        <time>2020-04-23T21:55:05.376Z</time>
      </trkpt>
      <trkpt lat="46.20845" lon="6.12786">
        <ele>415.6</ele>
        <time>2020-04-23T21:55:17.391Z</time>
      </trkpt>
      <trkpt lat="46.20841" lon="6.12715">
        <ele>415.5</ele>
        <time>2020-04-23T21:55:27.233Z</time>
      </trkpt>
      <trkpt lat="46.20835" lon="6.12656">
        <ele>415.6</ele>
        <time>2020-04-23T21:55:35.423Z</time>
      </trkpt>
      <trkpt lat="46.20956" lon="6.12051">
        <ele>416.8</ele>
        <time>2020-04-23T21:57:02.698Z</time>
      </trkpt>
      <trkpt lat="46.20991" lon="6.11873">
        <ele>414.8</ele>
        <time>2020-04-23T21:57:28.377Z</time>
      </trkpt>
      <trkpt lat="46.21048" lon="6.11612">
        <ele>422.4</ele>
        <time>2020-04-23T21:58:06.288Z</time>
      </trkpt>
      <trkpt lat="46.2109" lon="6.11475">
        <ele>427.2</ele>
        <time>2020-04-23T21:58:27.012Z</time>
      </trkpt>
      <trkpt lat="46.21111" lon="6.11411">
        <ele>427.1</ele>
        <time>2020-04-23T21:58:36.765Z</time>
      </trkpt>
      <trkpt lat="46.21117" lon="6.11376">
        <ele>426.5</ele>
        <time>2020-04-23T21:58:41.829Z</time>
      </trkpt>
      <trkpt lat="46.21126" lon="6.11328">
        <ele>425.3</ele>
        <time>2020-04-23T21:58:48.678Z</time>
      </trkpt>
      <trkpt lat="46.21127" lon="6.1128">
        <ele>425.2</ele>
        <time>2020-04-23T21:58:55.292Z</time>
      </trkpt>
      <trkpt lat="46.21123" lon="6.1122">
        <ele>425.9</ele>
        <time>2020-04-23T21:59:03.714Z</time>
      </trkpt>
      <trkpt lat="46.21124" lon="6.11168">
        <ele>426.4</ele>
        <time>2020-04-23T21:59:10.921Z</time>
      </trkpt>
      <trkpt lat="46.21129" lon="6.11127">
        <ele>425.7</ele>
        <time>2020-04-23T21:59:16.604Z</time>
      </trkpt>
      <trkpt lat="46.21158" lon="6.11038">
        <ele>423.3</ele>
        <time>2020-04-23T21:59:30.299Z</time>
      </trkpt>
      <trkpt lat="46.21167" lon="6.11003">
        <ele>422.5</ele>
        <time>2020-04-23T21:59:35.413Z</time>
      </trkpt>
      <trkpt lat="46.21168" lon="6.10987">
        <ele>423.2</ele>
        <time>2020-04-23T21:59:37.721Z</time>
      </trkpt>
      <trkpt lat="46.21166" lon="6.10973">
        <ele>423.5</ele>
        <time>2020-04-23T21:59:39.602Z</time>
      </trkpt>
      <trkpt lat="46.21148" lon="6.10904">
        <ele>425.3</ele>
        <time>2020-04-23T21:59:49.839Z</time>
      </trkpt>
      <trkpt lat="46.21142" lon="6.10881">
        <ele>425.8</ele>
        <time>2020-04-23T21:59:53.223Z</time>
      </trkpt>
      <trkpt lat="46.21143" lon="6.10849">
        <ele>425.9</ele>
        <time>2020-04-23T21:59:57.758Z</time>
      </trkpt>
      <trkpt lat="46.21148" lon="6.10806">
        <ele>425.1</ele>
        <time>2020-04-23T22:00:03.719Z</time>
      </trkpt>
      <trkpt lat="46.21176" lon="6.10702">
        <ele>424.5</ele>
        <time>2020-04-23T22:00:19.200Z</time>
      </trkpt>
      <trkpt lat="46.21223" lon="6.10544">
        <ele>422.8</ele>
        <time>2020-04-23T22:00:43.034Z</time>
      </trkpt>
      <trkpt lat="46.21234" lon="6.10514">
        <ele>422</ele>
        <time>2020-04-23T22:00:47.795Z</time>
      </trkpt>
      <trkpt lat="46.21295" lon="6.10415">
        <ele>418.2</ele>
        <time>2020-04-23T22:01:06.065Z</time>
      </trkpt>
      <trkpt lat="46.21388" lon="6.10283">
        <ele>414.9</ele>
        <time>2020-04-23T22:01:32.178Z</time>
      </trkpt>
      <trkpt lat="46.21528" lon="6.10073">
        <ele>409.6</ele>
        <time>2020-04-23T22:02:12.566Z</time>
      </trkpt>
      <trkpt lat="46.21585" lon="6.09983">
        <ele>411</ele>
        <time>2020-04-23T22:02:29.498Z</time>
      </trkpt>
      <trkpt lat="46.2164" lon="6.0992">
        <ele>412.3</ele>
        <time>2020-04-23T22:02:43.496Z</time>
      </trkpt>
      <trkpt lat="46.21699" lon="6.09866">
        <ele>408.7</ele>
        <time>2020-04-23T22:02:57.490Z</time>
      </trkpt>
      <trkpt lat="46.21748" lon="6.09805">
        <ele>406.6</ele>
        <time>2020-04-23T22:03:10.495Z</time>
      </trkpt>
      <trkpt lat="46.21797" lon="6.09732">
        <ele>414.1</ele>
        <time>2020-04-23T22:03:24.523Z</time>
      </trkpt>
      <trkpt lat="46.21833" lon="6.09661">
        <ele>416.9</ele>
        <time>2020-04-23T22:03:36.752Z</time>
      </trkpt>
      <trkpt lat="46.21853" lon="6.09611">
        <ele>418.3</ele>
        <time>2020-04-23T22:03:44.704Z</time>
      </trkpt>
      <trkpt lat="46.21866" lon="6.09568">
        <ele>419.9</ele>
        <time>2020-04-23T22:03:51.221Z</time>
      </trkpt>
      <trkpt lat="46.21882" lon="6.09527">
        <ele>420.9</ele>
        <time>2020-04-23T22:03:57.773Z</time>
      </trkpt>
      <trkpt lat="46.21905" lon="6.09413">
        <ele>423.6</ele>
        <time>2020-04-23T22:04:14.184Z</time>
      </trkpt>
      <trkpt lat="46.21907" lon="6.09385">
        <ele>424.4</ele>
        <time>2020-04-23T22:04:18.065Z</time>
      </trkpt>
      <trkpt lat="46.21917" lon="6.09327">
        <ele>427.5</ele>
        <time>2020-04-23T22:04:26.353Z</time>
      </trkpt>
      <trkpt lat="46.2191" lon="6.09298">
        <ele>427.6</ele>
        <time>2020-04-23T22:04:30.657Z</time>
      </trkpt>
      <trkpt lat="46.21903" lon="6.09251">
        <ele>428</ele>
        <time>2020-04-23T22:04:37.345Z</time>
      </trkpt>
      <trkpt lat="46.21893" lon="6.09138">
        <ele>433.4</ele>
        <time>2020-04-23T22:04:53.074Z</time>
      </trkpt>
      <trkpt lat="46.21888" lon="6.09105">
        <ele>433.6</ele>
        <time>2020-04-23T22:04:57.746Z</time>
      </trkpt>
      <trkpt lat="46.21871" lon="6.09037">
        <ele>435.8</ele>
        <time>2020-04-23T22:05:07.731Z</time>
      </trkpt>
      <trkpt lat="46.21851" lon="6.08976">
        <ele>437.7</ele>
        <time>2020-04-23T22:05:17.201Z</time>
      </trkpt>
      <trkpt lat="46.21834" lon="6.08931">
        <ele>437.4</ele>
        <time>2020-04-23T22:05:24.251Z</time>
      </trkpt>
      <trkpt lat="46.21823" lon="6.0891">
        <ele>436.7</ele>
        <time>2020-04-23T22:05:27.862Z</time>
      </trkpt>
      <trkpt lat="46.21809" lon="6.08887">
        <ele>436.3</ele>
        <time>2020-04-23T22:05:32.175Z</time>
      </trkpt>
      <trkpt lat="46.21743" lon="6.08801">
        <ele>437.7</ele>
        <time>2020-04-23T22:05:49.853Z</time>
      </trkpt>
      <trkpt lat="46.21732" lon="6.08778">
        <ele>438</ele>
        <time>2020-04-23T22:05:53.687Z</time>
      </trkpt>
      <trkpt lat="46.21672" lon="6.08696">
        <ele>439.8</ele>
        <time>2020-04-23T22:06:10.296Z</time>
      </trkpt>
      <trkpt lat="46.21657" lon="6.08671">
        <ele>439.9</ele>
        <time>2020-04-23T22:06:14.881Z</time>
      </trkpt>
      <trkpt lat="46.21647" lon="6.08654">
        <ele>440.6</ele>
        <time>2020-04-23T22:06:17.944Z</time>
      </trkpt>
      <trkpt lat="46.21635" lon="6.08636">
        <ele>440.5</ele>
        <time>2020-04-23T22:06:21.464Z</time>
      </trkpt>
      <trkpt lat="46.21631" lon="6.08623">
        <ele>440.5</ele>
        <time>2020-04-23T22:06:23.493Z</time>
      </trkpt>
      <trkpt lat="46.21632" lon="6.08605">
        <ele>440.6</ele>
        <time>2020-04-23T22:06:25.973Z</time>
      </trkpt>
      <trkpt lat="46.21643" lon="6.08585">
        <ele>440.8</ele>
        <time>2020-04-23T22:06:29.524Z</time>
      </trkpt>
      <trkpt lat="46.21672" lon="6.08543">
        <ele>440.5</ele>
        <time>2020-04-23T22:06:37.677Z</time>
      </trkpt>
      <trkpt lat="46.21687" lon="6.08515">
        <ele>440.4</ele>
        <time>2020-04-23T22:06:42.610Z</time>
      </trkpt>
      <trkpt lat="46.21698" lon="6.08481">
        <ele>441.2</ele>
        <time>2020-04-23T22:06:47.861Z</time>
      </trkpt>
      <trkpt lat="46.21703" lon="6.08454">
        <ele>441.5</ele>
        <time>2020-04-23T22:06:51.647Z</time>
      </trkpt>
      <trkpt lat="46.21704" lon="6.08436">
        <ele>441.7</ele>
        <time>2020-04-23T22:06:54.177Z</time>
      </trkpt>
      <trkpt lat="46.21703" lon="6.08422">
        <ele>441.8</ele>
        <time>2020-04-23T22:06:56.205Z</time>
      </trkpt>
      <trkpt lat="46.21699" lon="6.08409">
        <ele>443.1</ele>
        <time>2020-04-23T22:06:58.166Z</time>
      </trkpt>
      <trkpt lat="46.21633" lon="6.08318">
        <ele>444.3</ele>
        <time>2020-04-23T22:07:16.395Z</time>
      </trkpt>
      <trkpt lat="46.2157" lon="6.08234">
        <ele>443.6</ele>
        <time>2020-04-23T22:07:33.537Z</time>
      </trkpt>
      <trkpt lat="46.21492" lon="6.08149">
        <ele>442.4</ele>
        <time>2020-04-23T22:07:53.022Z</time>
      </trkpt>
      <trkpt lat="46.21367" lon="6.0801">
        <ele>441.9</ele>
        <time>2020-04-23T22:08:24.650Z</time>
      </trkpt>
      <trkpt lat="46.21272" lon="6.079">
        <ele>440.5</ele>
        <time>2020-04-23T22:08:49.017Z</time>
      </trkpt>
      <trkpt lat="46.21265" lon="6.07886">
        <ele>440.4</ele>
        <time>2020-04-23T22:08:51.410Z</time>
      </trkpt>
      <trkpt lat="46.21258" lon="6.07872">
        <ele>440.3</ele>
        <time>2020-04-23T22:08:53.863Z</time>
      </trkpt>
      <trkpt lat="46.21252" lon="6.07865">
        <ele>440.3</ele>
        <time>2020-04-23T22:08:55.349Z</time>
      </trkpt>
      <trkpt lat="46.21245" lon="6.07862">
        <ele>440.2</ele>
        <time>2020-04-23T22:08:56.759Z</time>
      </trkpt>
      <trkpt lat="46.21239" lon="6.07862">
        <ele>440.2</ele>
        <time>2020-04-23T22:08:57.873Z</time>
      </trkpt>
      <trkpt lat="46.21235" lon="6.07869">
        <ele>440.3</ele>
        <time>2020-04-23T22:08:59.082Z</time>
      </trkpt>
      <trkpt lat="46.21234" lon="6.07879">
        <ele>440.4</ele>
        <time>2020-04-23T22:09:00.585Z</time>
      </trkpt>
      <trkpt lat="46.21237" lon="6.07885">
        <ele>440.4</ele>
        <time>2020-04-23T22:09:01.596Z</time>
      </trkpt>
      <trkpt lat="46.21309" lon="6.07964">
        <ele>441</ele>
        <time>2020-04-23T22:09:19.562Z</time>
      </trkpt>
    </trkseg>
  </trk>
</gpx>